createdAt,value
2022-08-08T00:02:30.243Z,100.00
2022-08-08T00:06:36.618Z,100.00
2022-08-08T00:10:53.890Z,100.00
2022-08-08T00:15:09.776Z,100.00
2022-08-08T00:19:51.529Z,100.00
2022-08-08T00:23:59.462Z,100.00
2022-08-08T00:28:06.744Z,100.00
2022-08-08T00:32:36.726Z,100.00
2022-08-08T00:36:45.640Z,100.00
2022-08-08T00:41:15.706Z,100.00
2022-08-08T00:45:32.170Z,100.00
2022-08-08T00:49:58.720Z,100.00
2022-08-08T00:54:16.793Z,100.00
2022-08-08T00:58:43.541Z,100.00
2022-08-08T01:04:02.425Z,100.00
2022-08-08T01:07:57.104Z,100.00
2022-08-08T01:12:25.721Z,100.00
2022-08-08T01:16:55.113Z,100.00
2022-08-08T01:22:07.276Z,100.00
2022-08-08T01:26:11.691Z,100.00
2022-08-08T01:30:53.798Z,100.00
2022-08-08T01:35:16.813Z,100.00
2022-08-08T01:39:35.039Z,100.00
2022-08-08T01:44:17.961Z,100.00
2022-08-08T01:48:51.282Z,100.00
2022-08-08T01:55:16.028Z,100.00
2022-08-08T01:58:11.598Z,100.00
2022-08-08T02:02:49.153Z,100.00
2022-08-08T02:07:13.638Z,100.00
2022-08-08T02:11:59.435Z,100.00
2022-08-08T02:16:20.901Z,100.00
2022-08-08T02:21:02.473Z,100.00
2022-08-08T02:25:07.439Z,100.00
2022-08-08T02:29:52.564Z,100.00
2022-08-08T02:34:32.683Z,100.00
2022-08-08T02:38:49.243Z,100.00
2022-08-08T02:44:38.730Z,100.00
2022-08-08T02:47:58.345Z,100.00
2022-08-08T02:52:35.285Z,100.00
2022-08-08T02:57:21.527Z,100.00
2022-08-08T03:01:55.122Z,100.00
2022-08-08T03:06:34.593Z,100.00
2022-08-08T03:10:53.482Z,100.00
2022-08-08T03:15:59.453Z,100.00
2022-08-08T03:20:07.882Z,100.00
2022-08-08T03:24:16.453Z,100.00
2022-08-08T03:28:37.964Z,100.00
2022-08-08T03:33:07.613Z,100.00
2022-08-08T03:38:54.429Z,100.00
2022-08-08T03:42:26.166Z,100.00
2022-08-08T03:46:16.840Z,100.00
2022-08-08T03:50:24.731Z,100.00
2022-08-08T03:54:41.433Z,100.00
2022-08-08T03:58:53.402Z,100.00
2022-08-08T04:03:04.640Z,100.00
2022-08-08T04:07:16.411Z,100.00
2022-08-08T04:11:23.445Z,100.00
2022-08-08T04:15:38.299Z,100.00
2022-08-08T04:19:41.942Z,100.00
2022-08-08T04:24:11.667Z,100.00
2022-08-08T04:28:35.037Z,100.00
2022-08-08T04:32:34.107Z,100.00
2022-08-08T04:36:39.117Z,100.00
2022-08-08T04:40:53.656Z,100.00
2022-08-08T04:44:58.142Z,100.00
2022-08-08T04:49:01.541Z,100.00
2022-08-08T04:53:14.328Z,100.00
2022-08-08T04:57:26.600Z,100.00
2022-08-08T05:01:35.682Z,100.00
2022-08-08T05:05:53.473Z,100.00
2022-08-08T05:09:57.602Z,100.00
2022-08-08T05:14:02.378Z,100.00
2022-08-08T05:22:37.935Z,100.00
2022-08-08T05:26:46.764Z,100.00
2022-08-08T05:30:51.171Z,100.00
2022-08-08T05:35:04.691Z,100.00
2022-08-08T05:39:11.673Z,100.00
2022-08-08T05:43:39.492Z,100.00
2022-08-08T05:48:00.597Z,100.00
2022-08-08T05:52:05.008Z,100.00
2022-08-08T05:56:14.894Z,100.00
2022-08-08T06:00:23.691Z,98.85
2022-08-08T06:04:34.309Z,95.86
2022-08-08T06:08:53.412Z,93.38
2022-08-08T06:12:59.766Z,93.50
2022-08-08T06:17:06.104Z,91.22
2022-08-08T06:21:48.858Z,89.72
2022-08-08T06:26:38.226Z,84.67
2022-08-08T06:30:36.247Z,85.42
2022-08-08T06:34:56.234Z,89.27
2022-08-08T06:39:15.276Z,88.92
2022-08-08T06:43:30.656Z,88.66
2022-08-08T06:47:52.176Z,86.30
2022-08-08T06:52:01.659Z,86.70
2022-08-08T06:56:04.288Z,85.92
2022-08-08T07:00:13.028Z,87.09
2022-08-08T07:04:37.065Z,88.08
2022-08-08T07:08:47.534Z,86.34
2022-08-08T07:13:18.324Z,82.51
2022-08-08T07:17:31.798Z,79.35
2022-08-08T07:22:11.840Z,73.25
2022-08-08T07:26:32.739Z,77.06
2022-08-08T07:30:38.251Z,74.19
2022-08-08T07:35:00.276Z,72.66
2022-08-08T07:39:10.898Z,71.18
2022-08-08T07:43:16.800Z,70.72
2022-08-08T07:47:39.062Z,72.97
2022-08-08T07:51:53.720Z,77.85
2022-08-08T07:56:02.412Z,86.28
2022-08-08T08:00:16.444Z,92.07
2022-08-08T08:04:41.045Z,98.42
2022-08-08T08:08:52.362Z,100.00
2022-08-08T08:13:42.992Z,100.00
2022-08-08T08:17:58.046Z,100.00
2022-08-08T08:22:02.403Z,91.73
2022-08-08T08:26:15.304Z,90.23
2022-08-08T08:30:29.883Z,88.04
2022-08-08T08:34:33.554Z,87.14
2022-08-08T08:38:49.974Z,86.43
2022-08-08T08:42:58.643Z,86.21
2022-08-08T08:47:06.599Z,85.56
2022-08-08T08:51:15.605Z,83.02
2022-08-08T08:55:20.335Z,82.73
2022-08-08T08:59:58.706Z,81.73
2022-08-08T09:03:51.403Z,79.44
2022-08-08T09:08:12.909Z,79.28
2022-08-08T09:12:27.590Z,78.34
2022-08-08T09:16:32.831Z,75.91
2022-08-08T09:21:59.244Z,73.91
2022-08-08T09:25:02.386Z,73.38
2022-08-08T09:29:09.465Z,72.26
2022-08-08T09:34:14.936Z,70.66
2022-08-08T09:38:01.584Z,65.52
2022-08-08T09:42:22.154Z,62.09
2022-08-08T09:46:31.195Z,60.54
2022-08-08T09:50:34.942Z,59.13
2022-08-08T09:54:44.039Z,48.99
2022-08-08T09:58:57.651Z,52.84
2022-08-08T10:03:03.162Z,49.84
2022-08-08T10:07:09.577Z,50.15
2022-08-08T10:12:23.117Z,49.87
2022-08-08T10:15:39.225Z,48.12
2022-08-08T10:19:57.467Z,47.38
2022-08-08T10:24:28.345Z,43.90
2022-08-08T10:28:31.427Z,43.80
2022-08-08T10:32:37.753Z,45.45
2022-08-08T10:36:43.086Z,44.41
2022-08-08T10:40:50.411Z,44.94
2022-08-08T10:45:09.000Z,42.77
2022-08-08T10:50:00.645Z,43.13
2022-08-08T10:53:57.917Z,45.18
2022-08-08T10:58:06.067Z,45.04
2022-08-08T11:02:11.184Z,44.71
2022-08-08T11:06:16.450Z,44.70
2022-08-08T11:10:29.344Z,44.76
2022-08-08T11:14:31.630Z,45.42
2022-08-08T11:18:37.870Z,45.40
2022-08-08T11:22:43.824Z,46.63
2022-08-08T11:26:56.333Z,47.21
2022-08-08T11:31:03.721Z,42.01
2022-08-08T11:35:27.868Z,61.09
2022-08-08T11:39:36.877Z,85.03
2022-08-08T11:43:42.208Z,87.21
2022-08-08T11:48:05.039Z,91.61
2022-08-08T11:52:07.436Z,92.24
2022-08-08T11:56:22.452Z,94.79
2022-08-08T12:00:28.795Z,96.55
2022-08-08T12:04:34.358Z,92.45
2022-08-08T12:08:37.829Z,88.42
2022-08-08T12:12:45.922Z,82.51
2022-08-08T12:16:53.375Z,91.34
2022-08-08T12:20:58.943Z,100.00
2022-08-08T12:25:02.113Z,100.00
2022-08-08T12:29:36.286Z,100.00
2022-08-08T12:34:02.161Z,100.00
2022-08-08T12:38:09.165Z,100.00
2022-08-08T12:42:21.124Z,100.00
2022-08-08T12:46:37.172Z,100.00
2022-08-08T12:50:48.404Z,100.00
2022-08-08T12:55:01.983Z,100.00
2022-08-08T12:59:19.511Z,100.00
2022-08-08T13:03:33.881Z,100.00
2022-08-08T13:08:04.389Z,100.00
2022-08-08T13:12:19.933Z,100.00
2022-08-08T13:16:25.706Z,100.00
2022-08-08T13:20:28.443Z,100.00
2022-08-08T13:24:42.135Z,100.00
2022-08-08T13:28:50.093Z,100.00
2022-08-08T13:32:57.469Z,100.00
2022-08-08T13:37:00.046Z,100.00
2022-08-08T13:41:02.792Z,100.00
2022-08-08T13:45:05.419Z,100.00
2022-08-08T13:50:36.645Z,100.00
2022-08-08T13:53:41.287Z,97.44
2022-08-08T13:58:08.165Z,89.25
2022-08-08T14:02:21.541Z,87.15
2022-08-08T14:06:33.035Z,85.47
2022-08-08T14:10:39.426Z,82.92
2022-08-08T14:14:46.413Z,79.25
2022-08-08T14:19:00.595Z,72.90
2022-08-08T14:23:20.804Z,72.30
2022-08-08T14:27:41.192Z,71.11
2022-08-08T14:32:11.040Z,66.73
2022-08-08T14:36:15.303Z,70.79
2022-08-08T14:40:25.650Z,69.78
2022-08-08T14:44:35.207Z,69.05
2022-08-08T14:48:57.160Z,69.61
2022-08-08T14:53:06.332Z,65.09
2022-08-08T14:57:08.566Z,70.42
2022-08-08T15:01:23.442Z,72.11
2022-08-08T15:05:42.603Z,69.40
2022-08-08T15:09:51.382Z,66.28
2022-08-08T15:14:01.212Z,65.05
2022-08-08T15:18:05.164Z,61.78
2022-08-08T15:22:07.348Z,60.52
2022-08-08T15:26:12.715Z,57.41
2022-08-08T15:30:15.447Z,56.51
2022-08-08T15:34:29.590Z,57.71
2022-08-08T15:38:34.854Z,55.34
2022-08-08T15:42:47.611Z,54.99
2022-08-08T15:46:51.963Z,50.16
2022-08-08T15:51:06.645Z,43.88
2022-08-08T15:55:10.126Z,39.87
2022-08-08T15:59:12.551Z,36.28
2022-08-08T16:03:14.686Z,29.43
2022-08-08T16:07:18.107Z,34.18
2022-08-08T16:13:07.253Z,32.65
2022-08-08T16:15:57.971Z,31.58
2022-08-08T16:20:13.394Z,32.72
2022-08-08T16:24:15.813Z,35.32
2022-08-08T16:28:22.823Z,29.39
2022-08-08T16:32:36.703Z,32.80
2022-08-08T16:36:40.773Z,31.65
2022-08-08T16:40:43.046Z,31.74
2022-08-08T16:44:54.326Z,31.80
2022-08-08T16:48:58.120Z,31.39
2022-08-08T16:55:05.348Z,31.72
2022-08-08T16:58:11.993Z,32.09
2022-08-08T17:01:44.589Z,31.72
2022-08-08T17:05:46.729Z,31.25
2022-08-08T17:09:52.058Z,30.94
2022-08-08T17:14:00.978Z,30.77
2022-08-08T17:18:04.646Z,30.81
2022-08-08T17:22:13.115Z,30.77
2022-08-08T17:26:15.391Z,31.03
2022-08-08T17:30:31.263Z,31.07
2022-08-08T17:34:53.452Z,31.64
2022-08-08T17:38:57.920Z,32.43
2022-08-08T17:43:07.975Z,31.43
2022-08-08T17:47:23.126Z,31.83
2022-08-08T17:51:26.409Z,31.82
2022-08-08T17:56:03.727Z,32.82
2022-08-08T17:59:59.101Z,33.02
2022-08-08T18:04:06.245Z,34.24
2022-08-08T18:08:11.174Z,35.67
2022-08-08T18:12:27.533Z,36.54
2022-08-08T18:16:31.105Z,37.24
2022-08-08T18:20:37.280Z,37.97
2022-08-08T18:24:54.089Z,39.12
2022-08-08T18:28:57.702Z,39.49
2022-08-08T18:32:59.788Z,40.41
2022-08-08T18:37:06.701Z,41.83
2022-08-08T18:41:10.736Z,41.87
2022-08-08T18:45:44.746Z,42.71
2022-08-08T18:49:41.064Z,44.76
2022-08-08T18:54:03.039Z,47.02
2022-08-08T18:58:13.593Z,49.17
2022-08-08T19:02:27.578Z,50.70
2022-08-08T19:06:31.801Z,52.41
2022-08-08T19:10:35.122Z,53.77
2022-08-08T19:14:37.671Z,53.87
2022-08-08T19:18:51.519Z,54.66
2022-08-08T19:22:59.775Z,53.78
2022-08-08T19:27:04.959Z,54.40
2022-08-08T19:31:09.153Z,55.01
2022-08-08T19:35:12.004Z,63.43
2022-08-08T19:39:15.281Z,56.80
2022-08-08T19:43:17.490Z,57.09
2022-08-08T19:47:25.495Z,58.26
2022-08-08T19:51:41.497Z,58.68
2022-08-08T19:55:46.183Z,58.98
2022-08-08T19:59:53.705Z,60.99
2022-08-08T20:04:02.063Z,61.53
2022-08-08T20:08:30.025Z,62.61
2022-08-08T20:12:32.731Z,63.12
2022-08-08T20:16:40.907Z,63.34
2022-08-08T20:20:50.438Z,65.18
2022-08-08T20:25:00.226Z,66.61
2022-08-08T20:29:09.610Z,70.25
2022-08-08T20:33:18.730Z,70.08
2022-08-08T20:37:53.166Z,74.60
2022-08-08T20:41:59.713Z,81.68
2022-08-08T20:46:05.210Z,81.97
2022-08-08T20:50:36.042Z,80.95
2022-08-08T20:58:49.726Z,79.80
2022-08-08T21:03:01.010Z,79.60
2022-08-08T21:07:13.878Z,79.34
2022-08-08T21:11:19.276Z,81.14
2022-08-08T21:16:04.119Z,81.59
2022-08-08T21:20:08.996Z,81.17
2022-08-08T21:24:23.993Z,85.71
2022-08-08T21:28:35.642Z,87.74
2022-08-08T21:32:51.934Z,88.91
2022-08-08T21:37:05.246Z,88.45
2022-08-08T21:41:18.540Z,89.49
2022-08-08T21:47:59.770Z,87.64
2022-08-08T21:50:03.462Z,87.30
2022-08-08T21:58:32.276Z,89.68
2022-08-08T22:02:51.599Z,90.00
2022-08-08T22:06:54.291Z,89.83
2022-08-08T22:10:57.007Z,89.04
2022-08-08T22:15:00.565Z,89.42
2022-08-08T22:19:09.027Z,90.13
2022-08-08T22:23:29.917Z,93.01
2022-08-08T22:28:03.543Z,97.30
2022-08-08T22:32:09.003Z,95.94
2022-08-08T22:36:17.938Z,100.00
2022-08-08T22:40:34.890Z,100.00
2022-08-08T22:44:40.207Z,96.20
2022-08-08T22:48:50.226Z,99.37
2022-08-08T22:54:29.692Z,100.00
2022-08-08T22:57:43.974Z,94.22
2022-08-08T23:02:04.030Z,87.84
2022-08-08T23:06:11.090Z,87.22
2022-08-08T23:10:19.512Z,87.15
2022-08-08T23:14:29.560Z,86.91
2022-08-08T23:18:35.059Z,86.86
2022-08-08T23:22:45.796Z,86.41
2022-08-08T23:26:55.374Z,85.99
2022-08-08T23:31:05.847Z,85.91
2022-08-08T23:35:18.996Z,86.42
2022-08-08T23:39:25.216Z,86.70
2022-08-08T23:43:45.618Z,88.02
2022-08-08T23:49:01.304Z,87.76
2022-08-08T23:52:47.536Z,92.47
2022-08-08T23:56:56.688Z,88.43
